createdAt,value
2023-02-22T00:05:53.531Z,99325.09
2023-02-22T00:11:55.409Z,99314.69
2023-02-22T00:17:57.591Z,99312.47
2023-02-22T00:23:59.460Z,99308.97
2023-02-22T00:30:01.362Z,99306.31
2023-02-22T00:36:04.010Z,99300.38
2023-02-22T00:42:06.622Z,99299.69
2023-02-22T00:48:09.973Z,99291.09
2023-02-22T00:54:11.959Z,99285.63
2023-02-22T01:00:27.642Z,99279.94
2023-02-22T01:06:29.579Z,99274.53
2023-02-22T01:12:31.758Z,99271.06
2023-02-22T01:18:37.329Z,99277.69
2023-02-22T01:24:39.232Z,99253.34
2023-02-22T01:30:41.362Z,99255.47
2023-02-22T01:36:43.448Z,99257.06
2023-02-22T01:42:47.021Z,99253.34
2023-02-22T01:48:58.497Z,99253.97
2023-02-22T01:55:00.914Z,99254.19
2023-02-22T02:01:02.942Z,99236.66
2023-02-22T02:07:08.596Z,99232.97
2023-02-22T02:13:10.931Z,99235.94
2023-02-22T02:19:49.815Z,99229.88
2023-02-22T02:26:03.958Z,99220.22
2023-02-22T02:32:39.254Z,99207.53
2023-02-22T02:39:15.702Z,99225.38
2023-02-22T02:45:36.304Z,99211.38
2023-02-22T02:51:46.165Z,99217.56
2023-02-22T02:57:48.034Z,99206.22
2023-02-22T03:04:23.151Z,99201.06
2023-02-22T03:11:04.132Z,99204.88
2023-02-22T03:17:36.753Z,99191.97
2023-02-22T03:23:49.931Z,99182.16
2023-02-22T03:30:00.358Z,99173.03
2023-02-22T03:36:28.971Z,99167.50
2023-02-22T03:42:35.769Z,99166.19
2023-02-22T03:48:48.975Z,99151.69
2023-02-22T03:54:55.397Z,99158.91
2023-02-22T04:00:57.492Z,99157.88
2023-02-22T04:06:59.710Z,99164.63
2023-02-22T04:13:01.637Z,99158.00
2023-02-22T04:19:03.539Z,99163.34
2023-02-22T04:25:06.168Z,99156.16
2023-02-22T04:31:08.098Z,99150.03
2023-02-22T04:37:10.458Z,99159.84
2023-02-22T04:43:12.347Z,99163.19
2023-02-22T04:49:14.306Z,99156.81
2023-02-22T04:55:16.657Z,99160.78
2023-02-22T05:01:19.313Z,99152.91
2023-02-22T05:07:21.364Z,99154.06
2023-02-22T05:13:23.251Z,99144.19
2023-02-22T05:19:25.602Z,99143.78
2023-02-22T05:25:28.509Z,99144.28
2023-02-22T05:31:30.508Z,99150.84
2023-02-22T05:37:32.481Z,99154.94
2023-02-22T05:43:34.416Z,99139.25
2023-02-22T05:49:36.351Z,99132.41
2023-02-22T05:55:38.258Z,99126.59
2023-02-22T06:01:40.156Z,99127.81
2023-02-22T06:07:42.112Z,99122.63
2023-02-22T06:13:51.136Z,99133.13
2023-02-22T06:19:53.041Z,99128.66
2023-02-22T06:25:55.000Z,99127.97
2023-02-22T06:31:56.979Z,99135.78
2023-02-22T06:37:58.903Z,99130.88
2023-02-22T06:44:00.775Z,99141.31
2023-02-22T06:50:02.751Z,99140.75
2023-02-22T06:56:05.210Z,99139.34
2023-02-22T07:02:07.109Z,99142.88
2023-02-22T07:08:09.174Z,99146.38
2023-02-22T07:14:11.094Z,99142.16
2023-02-22T07:20:13.157Z,99144.56
2023-02-22T07:26:15.366Z,99141.66
2023-02-22T07:32:17.555Z,99145.91
2023-02-22T07:38:21.025Z,99139.69
2023-02-22T07:44:22.961Z,99147.53
2023-02-22T07:50:27.793Z,99150.94
2023-02-22T07:56:29.702Z,99152.63
2023-02-22T08:02:31.672Z,99143.53
2023-02-22T08:08:34.517Z,99135.69
2023-02-22T08:14:36.434Z,99140.63
2023-02-22T08:20:40.520Z,99139.28
2023-02-22T08:26:47.243Z,99133.25
2023-02-22T08:32:50.724Z,99127.75
2023-02-22T08:38:52.675Z,99119.63
2023-02-22T08:44:54.578Z,99127.09
2023-02-22T08:50:56.665Z,99118.81
2023-02-22T08:56:58.556Z,99114.91
2023-02-22T09:03:02.323Z,99108.06
2023-02-22T09:09:04.259Z,99112.22
2023-02-22T09:15:06.389Z,99100.13
2023-02-22T09:21:08.315Z,99099.59
2023-02-22T09:27:12.154Z,99101.50
2023-02-22T09:33:18.497Z,99091.59
2023-02-22T09:39:21.697Z,99094.69
2023-02-22T09:46:06.318Z,99077.41
2023-02-22T09:52:27.144Z,99075.22
2023-02-22T09:58:40.214Z,99069.06
2023-02-22T10:04:53.090Z,99068.38
2023-02-22T10:11:02.970Z,99059.53
2023-02-22T10:17:13.044Z,99048.09
2023-02-22T10:23:46.345Z,99060.91
2023-02-22T10:30:42.772Z,99041.28
2023-02-22T10:36:49.604Z,99048.13
2023-02-22T10:42:51.569Z,99048.16
2023-02-22T10:49:02.657Z,99034.84
2023-02-22T10:55:15.731Z,99021.78
2023-02-22T11:01:24.149Z,99029.41
2023-02-22T11:07:36.126Z,99026.09
2023-02-22T11:13:39.816Z,99022.53
2023-02-22T11:19:49.093Z,99016.56
2023-02-22T11:26:01.673Z,99000.66
2023-02-22T11:32:22.345Z,99002.28
2023-02-22T11:38:25.281Z,98983.44
2023-02-22T11:44:29.824Z,98977.88
2023-02-22T11:50:37.743Z,98968.44
2023-02-22T11:56:50.440Z,98961.31
2023-02-22T12:03:17.514Z,98961.63
2023-02-22T12:09:48.222Z,98955.31
2023-02-22T12:16:05.904Z,98952.81
2023-02-22T12:22:24.200Z,98944.78
2023-02-22T12:28:59.445Z,98944.81
2023-02-22T12:35:34.884Z,98946.25
2023-02-22T12:41:48.484Z,98938.78
2023-02-22T12:48:21.688Z,98941.03
2023-02-22T12:54:56.229Z,98934.50
2023-02-22T13:01:12.113Z,98929.88
2023-02-22T13:07:44.341Z,98916.81
2023-02-22T13:14:39.585Z,98902.94
2023-02-22T13:21:25.181Z,98898.84
2023-02-22T13:27:42.776Z,98892.03
2023-02-22T13:34:06.387Z,98883.84
2023-02-22T13:40:29.050Z,98886.84
2023-02-22T13:46:58.370Z,98874.03
2023-02-22T13:53:04.922Z,98873.75
2023-02-22T13:59:07.383Z,98875.78
2023-02-22T14:05:35.640Z,98868.84
2023-02-22T14:11:42.993Z,98867.22
2023-02-22T14:17:48.517Z,98860.16
2023-02-22T14:23:55.895Z,98858.00
2023-02-22T14:30:00.560Z,98854.75
2023-02-22T14:36:03.510Z,98848.66
2023-02-22T14:42:21.263Z,98837.31
2023-02-22T14:48:51.779Z,98824.56
2023-02-22T14:55:15.689Z,98827.06
2023-02-22T15:01:49.160Z,98823.56
2023-02-22T15:08:02.498Z,98812.00
2023-02-22T15:14:25.868Z,98809.84
2023-02-22T15:20:29.465Z,98807.13
2023-02-22T15:27:00.127Z,98797.53
2023-02-22T15:33:24.729Z,98802.31
2023-02-22T15:39:33.249Z,98799.38
2023-02-22T15:45:38.276Z,98795.06
2023-02-22T15:51:46.440Z,98797.22
2023-02-22T15:57:48.927Z,98794.19
2023-02-22T16:03:59.123Z,98800.50
2023-02-22T16:10:08.084Z,98802.78
2023-02-22T16:16:24.874Z,98803.47
2023-02-22T16:22:35.262Z,98798.53
2023-02-22T16:28:46.726Z,98790.50
2023-02-22T16:34:50.341Z,98795.50
2023-02-22T16:40:55.593Z,98803.75
2023-02-22T16:47:00.951Z,98812.00
2023-02-22T16:53:02.906Z,98805.50
2023-02-22T16:59:13.936Z,98815.22
2023-02-22T17:05:16.955Z,98817.88
2023-02-22T17:11:19.436Z,98808.44
2023-02-22T17:17:21.319Z,98811.19
2023-02-22T17:23:24.709Z,98817.88
2023-02-22T17:29:27.970Z,98815.22
2023-02-22T17:35:37.167Z,98828.66
2023-02-22T17:41:40.695Z,98836.81
2023-02-22T17:47:44.032Z,98848.78
2023-02-22T17:53:46.472Z,98845.88
2023-02-22T17:59:48.424Z,98851.28
2023-02-22T18:05:55.939Z,98847.41
2023-02-22T18:11:58.094Z,98845.09
2023-02-22T18:17:59.968Z,98836.00
2023-02-22T18:24:02.005Z,98838.69
2023-02-22T18:30:06.431Z,98838.06
2023-02-22T18:36:11.371Z,98847.50
2023-02-22T18:42:15.076Z,98845.88
2023-02-22T18:48:16.995Z,98847.69
2023-02-22T18:54:19.694Z,98847.72
2023-02-22T19:00:24.973Z,98845.69
2023-02-22T19:06:26.968Z,98848.59
2023-02-22T19:12:31.399Z,98836.44
2023-02-22T19:18:33.584Z,98840.59
2023-02-22T19:24:36.377Z,98845.09
2023-02-22T19:30:38.345Z,98841.41
2023-02-22T19:36:46.032Z,98841.59
2023-02-22T19:42:49.374Z,98838.09
2023-02-22T19:48:53.254Z,98837.69
2023-02-22T19:54:55.149Z,98842.66
2023-02-22T20:00:57.042Z,98835.66
2023-02-22T20:06:58.925Z,98843.50
2023-02-22T20:13:01.720Z,98836.28
2023-02-22T20:19:03.988Z,98850.72
2023-02-22T20:25:06.436Z,98861.81
2023-02-22T20:31:13.799Z,98861.19
2023-02-22T20:37:15.944Z,98863.63
2023-02-22T20:43:17.841Z,98860.19
2023-02-22T20:49:21.311Z,98855.00
2023-02-22T20:55:23.206Z,98849.84
2023-02-22T21:01:25.912Z,98850.47
2023-02-22T21:07:27.894Z,98851.91
2023-02-22T21:13:29.810Z,98847.41
2023-02-22T21:19:33.275Z,98852.75
2023-02-22T21:25:35.369Z,98842.03
2023-02-22T21:31:37.904Z,98837.31
2023-02-22T21:37:39.894Z,98842.66
2023-02-22T21:43:43.457Z,98835.47
2023-02-22T21:49:45.514Z,98842.03
2023-02-22T21:55:47.459Z,98841.25
2023-02-22T22:01:57.907Z,98834.22
2023-02-22T22:08:07.451Z,98840.75
2023-02-22T22:14:10.636Z,98840.75
2023-02-22T22:20:15.614Z,98836.19
2023-02-22T22:26:24.426Z,98836.81
2023-02-22T22:32:26.546Z,98847.88
2023-02-22T22:38:29.709Z,98837.97
2023-02-22T22:44:34.487Z,98838.94
2023-02-22T22:50:37.650Z,98841.81
2023-02-22T22:56:39.609Z,98848.44
2023-02-22T23:02:41.498Z,98845.69
2023-02-22T23:08:43.396Z,98844.00
2023-02-22T23:14:46.010Z,98850.00
2023-02-22T23:20:55.015Z,98846.13
2023-02-22T23:27:00.101Z,98850.34
2023-02-22T23:33:02.348Z,98849.44
2023-02-22T23:39:06.633Z,98853.28
2023-02-22T23:45:14.244Z,98860.19
2023-02-22T23:51:20.334Z,98864.63
2023-02-22T23:57:24.348Z,98863.31
